Time;durP1;ratioP1;P1;durP2;ratioP2;P2;SDS_P1;SDS_P2;PMS_P1;PMS_P2;Temp;Humidity;BMP_temperature;BMP_pressure;BME280_temperature;BME280_humidity;BME280_pressure;Samples;Min_cycle;Max_cycle;Signal;HPM_P1;HPM_P2
2022/01/05 00:00:42;;;;;;;0.85;0.80;;;5.20;99.90;;;;;;5059197;28;20083;-90
2022/01/05 00:03:09;;;;;;;0.40;0.40;;;5.20;99.90;;;;;;5059015;28;20115;-92
2022/01/05 00:05:37;;;;;;;0.40;0.40;;;5.20;99.90;;;;;;5058993;28;20170;-90
2022/01/05 00:08:04;;;;;;;0.40;0.40;;;5.10;99.90;;;;;;5058966;28;20135;-91
2022/01/05 00:10:31;;;;;;;0.38;0.38;;;5.20;99.90;;;;;;5058689;28;20090;-90
2022/01/05 00:12:58;;;;;;;0.80;0.20;;;5.20;99.90;;;;;;5058646;28;20099;-91
2022/01/05 00:15:24;;;;;;;0.10;0.10;;;5.20;99.90;;;;;;5059584;28;20072;-92
2022/01/05 00:17:51;;;;;;;0.20;0.20;;;5.10;99.90;;;;;;5058438;28;20134;-92
2022/01/05 00:20:18;;;;;;;0.17;0.17;;;5.20;99.90;;;;;;5060259;28;20053;-92
2022/01/05 00:22:45;;;;;;;0.45;0.10;;;5.20;99.90;;;;;;5060136;28;20075;-90
2022/01/05 00:25:12;;;;;;;0.10;0.10;;;5.20;99.90;;;;;;5059548;28;20053;-91
2022/01/05 00:27:39;;;;;;;0.20;0.20;;;5.10;99.90;;;;;;5062428;28;20052;-91
2022/01/05 00:30:07;;;;;;;0.20;0.20;;;5.10;99.90;;;;;;5060642;28;20052;-92
2022/01/05 00:32:37;;;;;;;0.10;0.10;;;5.10;99.90;;;;;;5060167;28;20075;-91
2022/01/05 00:35:05;;;;;;;0.22;0.10;;;5.00;99.90;;;;;;5060182;28;20163;-92
2022/01/05 00:37:32;;;;;;;0.20;0.10;;;5.00;99.90;;;;;;5072788;28;20075;-91
2022/01/05 00:39:59;;;;;;;0.15;0.10;;;5.00;99.90;;;;;;5081112;28;20049;-90
2022/01/05 00:42:27;;;;;;;0.03;0.00;;;5.00;99.90;;;;;;5073312;28;20056;-92
2022/01/05 00:45:03;;;;;;;0.10;0.10;;;5.00;99.90;;;;;;5059994;28;20131;-90
2022/01/05 00:47:31;;;;;;;0.03;0.03;;;5.00;99.90;;;;;;5059671;28;20052;-92
2022/01/05 00:49:58;;;;;;;0.10;0.10;;;5.00;99.90;;;;;;5057589;28;20079;-85
2022/01/05 00:52:25;;;;;;;0.10;0.10;;;5.00;99.90;;;;;;5058855;28;20110;-91
2022/01/05 00:54:52;;;;;;;0.30;0.00;;;5.10;99.90;;;;;;5060654;28;20048;-92
2022/01/05 00:57:19;;;;;;;0.17;0.10;;;5.00;99.90;;;;;;5058738;28;20064;-93
2022/01/05 00:59:45;;;;;;;0.00;0.00;;;5.00;99.90;;;;;;5059167;28;20513;-91
2022/01/05 01:02:12;;;;;;;0.10;0.10;;;5.00;99.90;;;;;;5059578;28;20099;-91
2022/01/05 01:04:40;;;;;;;0.28;0.10;;;5.00;99.90;;;;;;5059742;28;20453;-92
2022/01/05 01:07:07;;;;;;;0.10;0.10;;;4.90;99.90;;;;;;5059127;28;20049;-92
2022/01/05 01:09:34;;;;;;;0.10;0.10;;;4.90;99.90;;;;;;5060565;28;20045;-92
2022/01/05 01:12:02;;;;;;;0.10;0.10;;;4.90;99.90;;;;;;5059936;28;20052;-92
2022/01/05 01:14:29;;;;;;;0.10;0.10;;;4.90;99.90;;;;;;5057394;28;20079;-91
2022/01/05 01:16:56;;;;;;;0.25;0.22;;;4.90;99.90;;;;;;5056886;28;20481;-91
2022/01/05 01:19:23;;;;;;;0.10;0.10;;;5.00;99.90;;;;;;5057302;28;20098;-91
2022/01/05 01:21:50;;;;;;;0.10;0.10;;;5.00;99.90;;;;;;5056972;28;20084;-91
2022/01/05 01:24:17;;;;;;;0.10;0.10;;;5.00;99.90;;;;;;5057255;28;20078;-91
2022/01/05 01:26:44;;;;;;;0.15;0.15;;;5.10;99.90;;;;;;5056945;28;20131;-91
2022/01/05 01:29:10;;;;;;;0.13;0.13;;;5.10;99.90;;;;;;5057087;28;20045;-91
2022/01/05 01:31:37;;;;;;;0.17;0.10;;;5.10;99.90;;;;;;5057549;28;20102;-91
2022/01/05 01:34:04;;;;;;;0.20;0.20;;;5.20;99.90;;;;;;5057131;28;20459;-89
2022/01/05 01:36:31;;;;;;;0.10;0.10;;;5.10;99.90;;;;;;5056548;28;20110;-92
2022/01/05 01:38:59;;;;;;;0.20;0.20;;;5.20;99.90;;;;;;5056955;28;20087;-90
2022/01/05 01:41:26;;;;;;;0.20;0.20;;;5.10;99.90;;;;;;5057166;28;20132;-91
2022/01/05 01:43:53;;;;;;;0.20;0.20;;;5.10;99.90;;;;;;5057191;28;20120;-91
2022/01/05 01:46:20;;;;;;;0.43;0.20;;;5.10;99.90;;;;;;5057314;28;20071;-91
2022/01/05 01:48:47;;;;;;;0.10;0.10;;;5.10;99.90;;;;;;5058084;28;20049;-91
2022/01/05 01:51:14;;;;;;;0.50;0.20;;;5.10;99.90;;;;;;5059113;28;20068;-91
2022/01/05 01:53:41;;;;;;;0.10;0.10;;;5.00;99.90;;;;;;5074711;28;20032;-90
2022/01/05 01:56:09;;;;;;;0.10;0.10;;;5.00;99.90;;;;;;5073660;28;20136;-91
2022/01/05 01:58:37;;;;;;;0.57;0.10;;;5.00;99.90;;;;;;5058036;28;20477;-91
2022/01/05 02:01:04;;;;;;;0.38;0.38;;;4.90;99.90;;;;;;5057042;28;20069;-92
2022/01/05 02:03:31;;;;;;;0.43;0.30;;;4.90;99.90;;;;;;5057320;28;20054;-90
2022/01/05 02:05:58;;;;;;;0.20;0.20;;;4.80;99.90;;;;;;5059228;28;20148;-91
2022/01/05 02:08:25;;;;;;;0.10;0.10;;;4.80;99.90;;;;;;5058004;28;20079;-91
2022/01/05 02:10:53;;;;;;;0.10;0.10;;;4.80;99.90;;;;;;5058149;28;20072;-92
2022/01/05 02:13:20;;;;;;;0.68;0.20;;;4.80;99.90;;;;;;5058053;28;20136;-91
2022/01/05 02:15:47;;;;;;;0.00;0.00;;;4.80;99.90;;;;;;5061310;28;20072;-91
2022/01/05 02:20:57;;;;;;;0.10;0.10;;;4.80;99.90;;;;;;5078237;28;20143;-90
2022/01/05 02:23:24;;;;;;;0.00;0.00;;;4.90;99.90;;;;;;5060831;28;20048;-90
2022/01/05 02:25:51;;;;;;;0.10;0.10;;;4.90;99.90;;;;;;5061086;28;20049;-91
2022/01/05 02:28:17;;;;;;;0.10;0.10;;;4.80;99.90;;;;;;5061226;28;20098;-91
2022/01/05 02:30:44;;;;;;;0.00;0.00;;;4.80;99.90;;;;;;5061497;28;20111;-90
2022/01/05 02:33:11;;;;;;;0.00;0.00;;;4.80;99.90;;;;;;5064342;28;20059;-91
2022/01/05 02:35:38;;;;;;;0.10;0.10;;;4.80;99.90;;;;;;5079978;28;20044;-91
2022/01/05 02:38:05;;;;;;;0.10;0.10;;;4.70;99.90;;;;;;5081716;28;20059;-91
2022/01/05 02:40:35;;;;;;;0.00;0.00;;;4.70;99.90;;;;;;5061048;28;20464;-91
2022/01/05 02:43:03;;;;;;;0.00;0.00;;;4.70;99.90;;;;;;5061718;28;20139;-91
2022/01/05 02:45:30;;;;;;;0.25;0.00;;;4.70;99.90;;;;;;5059558;28;20079;-90
2022/01/05 02:47:57;;;;;;;0.10;0.08;;;4.70;99.90;;;;;;5059817;28;20052;-91
2022/01/05 02:50:24;;;;;;;0.00;0.00;;;4.70;99.90;;;;;;5059964;28;20065;-91
2022/01/05 02:52:50;;;;;;;0.10;0.10;;;4.60;99.90;;;;;;5060070;28;20560;-91
2022/01/05 02:55:17;;;;;;;0.00;0.00;;;4.60;99.90;;;;;;5059654;28;20132;-91
2022/01/05 02:57:44;;;;;;;1.30;0.00;;;4.60;99.90;;;;;;5059444;28;20492;-91
2022/01/05 03:00:13;;;;;;;0.00;0.00;;;4.60;99.90;;;;;;5059513;28;20135;-92
2022/01/05 03:02:40;;;;;;;0.00;0.00;;;4.50;99.90;;;;;;5059818;28;20159;-91
2022/01/05 03:05:08;;;;;;;0.47;0.00;;;4.50;99.90;;;;;;5060035;28;20053;-90
2022/01/05 03:07:39;;;;;;;0.00;0.00;;;4.50;99.90;;;;;;5065690;28;20036;-90
2022/01/05 03:10:08;;;;;;;0.10;0.10;;;4.40;99.90;;;;;;5070050;28;20052;-90
2022/01/05 03:12:40;;;;;;;0.00;0.00;;;4.40;99.90;;;;;;5059328;28;20154;-90
2022/01/05 03:15:08;;;;;;;0.35;0.00;;;4.40;99.90;;;;;;5059310;28;20060;-91
2022/01/05 03:17:35;;;;;;;0.00;0.00;;;4.40;99.90;;;;;;5059223;28;20131;-90
2022/01/05 03:20:03;;;;;;;0.00;0.00;;;4.40;99.90;;;;;;5059426;28;20135;-91
2022/01/05 03:22:29;;;;;;;0.05;0.05;;;4.40;99.90;;;;;;5059657;28;20140;-91
2022/01/05 03:24:56;;;;;;;0.00;0.00;;;4.30;99.90;;;;;;5059405;28;20048;-91
2022/01/05 03:27:23;;;;;;;0.00;0.00;;;4.40;99.90;;;;;;5058660;28;20131;-91
2022/01/05 03:29:50;;;;;;;0.00;0.00;;;4.40;99.90;;;;;;5060336;28;20067;-91
2022/01/05 03:32:17;;;;;;;0.20;0.20;;;4.40;99.90;;;;;;5059324;28;20052;-91
2022/01/05 03:34:45;;;;;;;0.00;0.00;;;4.50;99.90;;;;;;5058982;28;20481;-91
2022/01/05 03:37:12;;;;;;;0.63;0.00;;;4.50;99.90;;;;;;5058987;28;20577;-91
2022/01/05 03:39:39;;;;;;;1.35;0.10;;;4.50;99.90;;;;;;5058622;28;20076;-91
2022/01/05 03:42:06;;;;;;;0.00;0.00;;;4.50;99.90;;;;;;5058649;28;20052;-90
2022/01/05 03:44:34;;;;;;;0.32;0.08;;;4.60;99.90;;;;;;5060393;28;20064;-91
2022/01/05 03:47:02;;;;;;;0.20;0.10;;;4.60;99.90;;;;;;5058649;28;20139;-91
2022/01/05 03:49:29;;;;;;;0.10;0.10;;;4.60;99.90;;;;;;5058726;28;20087;-91
2022/01/05 03:51:56;;;;;;;0.00;0.00;;;4.60;99.90;;;;;;5058978;28;20091;-91
2022/01/05 03:54:23;;;;;;;0.10;0.10;;;4.60;99.90;;;;;;5058809;28;20084;-91
2022/01/05 03:56:50;;;;;;;0.90;0.20;;;4.60;99.90;;;;;;5058772;28;20159;-91
2022/01/05 03:59:16;;;;;;;0.10;0.10;;;4.70;99.90;;;;;;5059066;28;20079;-91
2022/01/05 04:01:43;;;;;;;0.20;0.20;;;4.70;99.90;;;;;;5058399;28;20060;-91
2022/01/05 04:04:10;;;;;;;0.30;0.10;;;4.70;99.90;;;;;;5058436;28;20385;-92
2022/01/05 04:06:37;;;;;;;2.60;0.20;;;4.70;99.90;;;;;;5058576;28;20433;-91
2022/01/05 04:09:04;;;;;;;0.20;0.20;;;4.70;99.90;;;;;;5058338;28;20102;-91
2022/01/05 04:11:31;;;;;;;0.20;0.20;;;4.70;99.90;;;;;;5058712;28;20170;-91
2022/01/05 04:13:57;;;;;;;0.20;0.20;;;4.60;99.90;;;;;;5058523;28;20052;-91
2022/01/05 04:16:24;;;;;;;0.20;0.20;;;4.60;99.90;;;;;;5058681;28;20063;-91
2022/01/05 04:18:51;;;;;;;0.10;0.10;;;4.60;99.90;;;;;;5062330;28;20053;-91
2022/01/05 04:21:18;;;;;;;0.20;0.20;;;4.70;99.90;;;;;;5062131;28;20068;-91
2022/01/05 04:23:49;;;;;;;0.10;0.10;;;4.80;99.90;;;;;;5075237;28;20056;-91
2022/01/05 04:26:22;;;;;;;1.08;0.20;;;4.80;99.90;;;;;;5060069;28;20048;-92
2022/01/05 04:28:55;;;;;;;0.20;0.20;;;4.90;99.90;;;;;;5090378;28;20028;-91
2022/01/05 04:31:22;;;;;;;0.10;0.10;;;4.90;99.90;;;;;;5080072;28;20060;-91
2022/01/05 04:33:48;;;;;;;0.28;0.28;;;4.90;99.90;;;;;;5067019;28;20481;-91
2022/01/05 04:36:35;;;;;;;0.10;0.10;;;4.90;99.90;;;;;;5063280;28;20052;-90
2022/01/05 04:39:02;;;;;;;0.95;0.28;;;5.00;99.90;;;;;;5059047;28;20071;-91
2022/01/05 04:41:29;;;;;;;0.40;0.40;;;5.10;99.90;;;;;;5057696;28;20075;-92
2022/01/05 04:43:56;;;;;;;0.43;0.30;;;5.20;99.90;;;;;;5058255;28;20079;-92
2022/01/05 04:46:23;;;;;;;0.22;0.22;;;5.20;99.90;;;;;;5057727;28;20048;-90
2022/01/05 04:48:50;;;;;;;1.70;0.30;;;5.20;99.90;;;;;;5057859;28;20310;-91
2022/01/05 04:51:17;;;;;;;0.95;0.30;;;5.20;99.90;;;;;;5058666;28;20068;-91
2022/01/05 04:53:44;;;;;;;1.00;0.40;;;5.10;99.90;;;;;;5058557;28;20515;-91
2022/01/05 04:56:11;;;;;;;0.63;0.20;;;5.00;99.90;;;;;;5057731;28;20079;-91
2022/01/05 04:58:37;;;;;;;0.00;0.00;;;5.00;99.90;;;;;;5058745;28;20075;-91
2022/01/05 05:01:04;;;;;;;0.00;0.00;;;4.50;99.90;;;;;;5059241;28;20075;-92
2022/01/05 05:03:31;;;;;;;0.00;0.00;;;4.00;99.90;;;;;;5057975;28;20445;-91
2022/01/05 05:05:58;;;;;;;2.10;0.25;;;3.60;99.90;;;;;;5060118;28;20048;-91
2022/01/05 05:08:24;;;;;;;0.10;0.10;;;3.20;99.90;;;;;;5058938;28;20139;-89
2022/01/05 05:10:51;;;;;;;0.45;0.10;;;2.90;99.90;;;;;;5059311;28;20060;-90
2022/01/05 05:13:18;;;;;;;2.17;0.10;;;2.60;99.90;;;;;;5058758;28;20054;-90
2022/01/05 05:15:45;;;;;;;2.28;0.22;;;2.30;99.90;;;;;;5058400;28;20079;-90
2022/01/05 05:18:13;;;;;;;0.95;0.22;;;2.10;99.90;;;;;;5058345;28;20049;-89
2022/01/05 05:20:40;;;;;;;1.17;0.10;;;1.90;99.90;;;;;;5058035;28;20136;-89
2022/01/05 05:23:07;;;;;;;0.80;0.30;;;1.80;99.90;;;;;;5058497;28;20527;-89
2022/01/05 05:25:35;;;;;;;0.15;0.15;;;1.70;99.90;;;;;;5057768;28;20086;-88
2022/01/05 05:28:06;;;;;;;1.02;0.20;;;1.70;99.90;;;;;;5057649;28;20072;-89
2022/01/05 05:30:34;;;;;;;2.60;0.38;;;1.70;99.90;;;;;;5060703;28;20048;-88
2022/01/05 05:33:03;;;;;;;1.00;0.40;;;1.60;99.90;;;;;;5044532;28;20056;-88
2022/01/05 05:35:31;;;;;;;3.88;0.38;;;1.50;99.90;;;;;;5061370;28;20044;-88
2022/01/05 05:37:58;;;;;;;0.82;0.20;;;1.40;99.90;;;;;;5070100;28;20041;-88
2022/01/05 05:40:25;;;;;;;0.45;0.20;;;1.30;99.90;;;;;;5097303;28;20032;-87
2022/01/05 05:42:52;;;;;;;2.22;0.47;;;1.30;99.90;;;;;;5079533;28;20059;-88
2022/01/05 05:45:19;;;;;;;2.78;0.25;;;1.30;99.90;;;;;;5078286;28;20045;-87
2022/01/05 05:47:46;;;;;;;0.90;0.45;;;1.30;99.90;;;;;;5061207;28;20048;-87
2022/01/05 05:50:13;;;;;;;4.03;0.65;;;1.20;99.90;;;;;;5064087;28;20080;-87
2022/01/05 05:52:40;;;;;;;1.48;0.30;;;1.20;99.90;;;;;;5066297;28;20112;-87
2022/01/05 05:55:08;;;;;;;3.78;0.43;;;1.10;99.90;;;;;;5065198;28;20058;-87
2022/01/05 05:57:40;;;;;;;5.53;0.40;;;1.10;99.90;;;;;;5066130;28;20095;-87
2022/01/05 06:00:08;;;;;;;7.05;0.50;;;1.10;99.90;;;;;;5066225;28;20190;-88
2022/01/05 06:02:35;;;;;;;2.05;0.40;;;1.10;99.90;;;;;;5065124;28;20071;-88
2022/01/05 06:05:02;;;;;;;0.80;0.30;;;1.10;99.90;;;;;;5083508;28;20056;-87
2022/01/05 06:07:32;;;;;;;3.65;0.63;;;1.10;99.90;;;;;;5083436;28;20101;-88
2022/01/05 06:09:59;;;;;;;2.92;0.28;;;1.10;99.90;;;;;;5065582;28;20048;-88
2022/01/05 06:12:26;;;;;;;3.30;0.38;;;1.00;99.90;;;;;;5083478;28;20068;-88
2022/01/05 06:14:53;;;;;;;1.00;0.40;;;1.10;99.90;;;;;;5083027;28;20475;-88
2022/01/05 06:17:20;;;;;;;2.85;0.73;;;1.10;99.90;;;;;;5083481;28;20051;-88
2022/01/05 06:19:49;;;;;;;4.35;0.63;;;1.10;99.90;;;;;;5082063;28;20052;-88
2022/01/05 06:22:17;;;;;;;18.45;6.18;;;1.10;99.90;;;;;;5087142;28;20469;-88
2022/01/05 06:24:47;;;;;;;16.33;7.13;;;1.10;99.90;;;;;;5095444;28;20084;-88
2022/01/05 06:27:14;;;;;;;7.00;2.13;;;1.10;99.90;;;;;;5093703;28;20045;-88
2022/01/05 06:29:41;;;;;;;2.88;1.58;;;1.10;99.90;;;;;;5064966;28;20398;-88
2022/01/05 06:32:08;;;;;;;12.73;10.73;;;1.10;99.90;;;;;;5083155;28;20083;-89
2022/01/05 06:34:35;;;;;;;30.45;23.63;;;1.00;99.90;;;;;;5064747;28;20052;-89
2022/01/05 06:37:03;;;;;;;11.82;7.35;;;1.10;99.90;;;;;;5064003;28;20059;-88
2022/01/05 06:39:30;;;;;;;12.88;9.98;;;1.10;99.90;;;;;;5083288;28;20048;-88
2022/01/05 06:41:57;;;;;;;4.38;3.90;;;1.10;99.90;;;;;;5068513;28;20058;-88
2022/01/05 06:44:24;;;;;;;2.28;0.50;;;1.10;99.90;;;;;;5070135;28;20048;-88
2022/01/05 06:46:50;;;;;;;9.52;5.30;;;1.10;99.90;;;;;;5070141;28;20112;-88
2022/01/05 06:49:20;;;;;;;2.47;1.77;;;1.10;99.90;;;;;;5069236;28;20044;-87
2022/01/05 06:51:47;;;;;;;4.13;1.90;;;1.10;99.90;;;;;;5070868;28;20072;-87
2022/01/05 06:54:14;;;;;;;7.72;1.08;;;1.10;99.90;;;;;;5081617;28;20052;-87
2022/01/05 06:56:43;;;;;;;62.53;28.45;;;1.10;99.90;;;;;;5079407;28;20075;-89
2022/01/05 06:59:09;;;;;;;66.72;32.45;;;1.10;99.90;;;;;;5071748;28;20056;-89
2022/01/05 07:01:37;;;;;;;32.75;15.80;;;1.10;99.90;;;;;;5069274;28;20113;-89
2022/01/05 07:04:04;;;;;;;50.72;21.45;;;1.10;99.90;;;;;;5071820;28;20052;-89
2022/01/05 07:06:30;;;;;;;5.70;2.17;;;1.10;99.90;;;;;;5073581;28;20049;-89
2022/01/05 07:08:57;;;;;;;13.07;1.92;;;1.20;99.90;;;;;;5072598;28;20048;-89
2022/01/05 07:11:24;;;;;;;8.38;1.65;;;1.20;99.90;;;;;;5071630;28;20078;-89
2022/01/05 07:13:51;;;;;;;5.72;1.90;;;1.20;99.90;;;;;;5088406;28;20044;-89
2022/01/05 07:16:18;;;;;;;7.78;1.80;;;1.20;99.90;;;;;;5070187;28;20048;-89
2022/01/05 07:18:45;;;;;;;11.07;1.60;;;1.30;99.90;;;;;;5086421;28;20048;-89
2022/01/05 07:21:12;;;;;;;9.23;3.70;;;1.20;99.90;;;;;;5069509;28;20053;-89
2022/01/05 07:23:39;;;;;;;7.20;2.03;;;1.20;99.90;;;;;;5088425;28;20108;-89
2022/01/05 07:26:06;;;;;;;9.73;1.50;;;1.20;99.90;;;;;;5087879;28;20044;-89
2022/01/05 07:28:34;;;;;;;9.45;1.52;;;1.20;99.90;;;;;;5088358;28;20470;-89
2022/01/05 07:31:01;;;;;;;6.22;2.90;;;1.20;99.90;;;;;;5070344;28;20060;-87
2022/01/05 07:33:29;;;;;;;10.35;4.03;;;1.30;99.90;;;;;;5069504;28;20467;-89
2022/01/05 07:35:56;;;;;;;10.70;3.40;;;1.30;99.90;;;;;;5087497;28;20048;-88
2022/01/05 07:38:23;;;;;;;15.52;4.60;;;1.40;99.90;;;;;;5069842;28;20055;-88
2022/01/05 07:40:51;;;;;;;11.43;3.70;;;1.30;99.90;;;;;;5069843;28;20045;-89
2022/01/05 07:43:18;;;;;;;69.40;45.15;;;1.30;99.90;;;;;;5070490;28;20416;-89
2022/01/05 07:45:45;;;;;;;35.58;17.30;;;1.30;99.90;;;;;;5069191;28;20044;-89
2022/01/05 07:48:12;;;;;;;21.83;9.60;;;1.30;99.90;;;;;;5069906;28;20104;-89
2022/01/05 07:50:39;;;;;;;85.65;48.17;;;1.30;99.90;;;;;;5069670;28;20579;-89
2022/01/05 07:53:06;;;;;;;61.00;28.95;;;1.30;99.90;;;;;;5068828;28;20051;-87
2022/01/05 07:55:34;;;;;;;12.75;5.03;;;1.40;99.90;;;;;;5069739;28;20048;-88
2022/01/05 07:58:01;;;;;;;13.57;2.60;;;1.30;99.90;;;;;;5070075;28;20083;-88
2022/01/05 08:00:35;;;;;;;12.25;5.47;;;1.30;99.90;;;;;;5071813;28;20048;-88
2022/01/05 08:03:03;;;;;;;21.23;10.18;;;1.20;99.90;;;;;;5070621;28;20102;-88
2022/01/05 08:05:30;;;;;;;12.23;3.78;;;1.40;99.90;;;;;;5088247;28;20048;-89
2022/01/05 08:07:57;;;;;;;12.55;4.00;;;1.50;99.90;;;;;;5074837;28;20035;-88
2022/01/05 08:10:24;;;;;;;11.38;3.70;;;1.50;99.90;;;;;;5099560;28;20040;-88
2022/01/05 08:12:51;;;;;;;10.82;3.85;;;1.60;99.90;;;;;;5093384;28;20044;-88
2022/01/05 08:15:18;;;;;;;12.10;2.95;;;1.50;99.90;;;;;;5088376;28;20132;-88
2022/01/05 08:17:45;;;;;;;14.23;2.88;;;1.60;99.90;;;;;;5092235;28;20084;-86
2022/01/05 08:20:12;;;;;;;10.30;2.67;;;1.60;99.90;;;;;;5081376;28;20032;-88
2022/01/05 08:22:41;;;;;;;7.47;2.47;;;1.70;99.90;;;;;;5072406;28;20083;-89
2022/01/05 08:25:11;;;;;;;9.07;2.65;;;1.60;99.90;;;;;;5070212;28;20059;-88
2022/01/05 08:27:45;;;;;;;12.52;3.00;;;1.70;99.90;;;;;;5070440;28;20512;-89
2022/01/05 08:30:18;;;;;;;12.07;1.83;;;1.70;99.90;;;;;;5087478;28;20053;-88
2022/01/05 08:32:49;;;;;;;10.30;1.80;;;1.80;99.90;;;;;;5069156;28;20047;-88
2022/01/05 08:35:17;;;;;;;6.60;2.03;;;1.90;99.90;;;;;;5087559;28;20052;-88
2022/01/05 08:37:46;;;;;;;5.45;1.67;;;1.80;99.90;;;;;;5086464;28;20044;-88
2022/01/05 08:40:16;;;;;;;11.75;2.47;;;1.90;99.90;;;;;;5069179;28;20056;-89
2022/01/05 08:42:44;;;;;;;6.65;2.90;;;1.90;99.90;;;;;;5068546;28;20111;-88
2022/01/05 08:45:15;;;;;;;7.28;1.80;;;1.80;99.90;;;;;;5067537;28;20056;-89
2022/01/05 08:47:47;;;;;;;7.35;2.80;;;1.80;99.90;;;;;;5084527;28;20075;-89
2022/01/05 08:50:17;;;;;;;8.95;3.25;;;1.80;99.90;;;;;;5068028;28;20063;-89
2022/01/05 08:52:45;;;;;;;12.63;3.55;;;1.90;99.90;;;;;;5050958;28;20416;-88
2022/01/05 08:55:22;;;;;;;9.18;2.83;;;1.90;99.90;;;;;;5069302;28;20052;-89
2022/01/05 08:57:52;;;;;;;6.70;2.35;;;1.90;99.90;;;;;;5068652;28;20048;-88
2022/01/05 09:00:20;;;;;;;9.98;2.00;;;1.90;99.90;;;;;;5068884;28;20055;-88
2022/01/05 09:02:50;;;;;;;6.22;2.33;;;1.80;99.90;;;;;;5069848;28;20079;-89
2022/01/05 09:05:22;;;;;;;6.70;2.53;;;1.80;99.90;;;;;;5085653;28;20060;-88
2022/01/05 09:07:49;;;;;;;11.02;2.80;;;1.90;99.90;;;;;;5069219;28;20565;-88
2022/01/05 09:10:16;;;;;;;7.38;2.88;;;1.80;99.90;;;;;;5068052;28;20079;-88
2022/01/05 09:12:43;;;;;;;12.50;3.75;;;1.90;99.90;;;;;;5067887;28;20068;-89
2022/01/05 09:15:11;;;;;;;12.60;3.90;;;1.80;99.90;;;;;;5085567;28;20044;-89
2022/01/05 09:17:38;;;;;;;13.43;3.85;;;1.80;99.90;;;;;;5068329;28;20093;-88
2022/01/05 09:20:06;;;;;;;6.60;2.70;;;1.90;99.90;;;;;;5066926;28;20056;-89
2022/01/05 09:22:37;;;;;;;12.65;4.00;;;1.80;99.90;;;;;;5086654;28;20048;-89
2022/01/05 09:25:06;;;;;;;27.67;9.65;;;1.80;99.90;;;;;;5097002;28;20139;-87
2022/01/05 09:27:33;;;;;;;22.50;10.65;;;1.70;99.90;;;;;;5075969;28;20044;-88
2022/01/05 09:30:00;;;;;;;23.70;5.22;;;1.70;99.90;;;;;;5070403;28;20523;-88
2022/01/05 09:32:28;;;;;;;6.95;2.38;;;1.60;99.90;;;;;;5069611;28;20044;-88
2022/01/05 09:34:55;;;;;;;4.22;2.03;;;1.60;99.90;;;;;;5068435;28;20052;-88
2022/01/05 09:37:28;;;;;;;11.23;2.33;;;1.50;99.90;;;;;;5069217;28;20079;-89
2022/01/05 09:42:41;;;;;;;6.75;2.47;;;1.40;99.90;;;;;;5086077;28;20076;-88
2022/01/05 09:45:21;;;;;;;2.90;1.90;;;1.30;99.90;;;;;;5066712;28;20101;-89
2022/01/05 09:48:00;;;;;;;5.35;2.30;;;1.40;99.90;;;;;;5086168;28;20044;-88
2022/01/05 09:50:28;;;;;;;8.32;2.40;;;1.30;99.90;;;;;;5068555;28;20088;-89
2022/01/05 09:52:55;;;;;;;5.13;2.03;;;1.30;99.90;;;;;;5068357;28;20076;-89
2022/01/05 09:55:23;;;;;;;7.63;2.85;;;1.40;99.90;;;;;;5069715;28;20139;-89
2022/01/05 09:57:51;;;;;;;8.18;3.70;;;1.40;99.90;;;;;;5068905;28;20542;-89
2022/01/05 10:00:18;;;;;;;7.47;3.13;;;1.40;99.90;;;;;;5068469;28;20076;-90
2022/01/05 10:02:48;;;;;;;2.17;1.90;;;1.30;99.90;;;;;;5068411;28;20109;-90
2022/01/05 10:05:16;;;;;;;10.85;3.20;;;1.30;99.90;;;;;;5069708;28;20077;-89
2022/01/05 10:07:43;;;;;;;18.08;2.70;;;1.30;99.90;;;;;;5069613;28;20056;-89
2022/01/05 10:10:11;;;;;;;4.43;2.50;;;1.30;99.90;;;;;;5087657;28;20052;-89
2022/01/05 10:12:38;;;;;;;7.38;3.42;;;1.40;99.90;;;;;;5092408;28;20048;-90
2022/01/05 10:15:13;;;;;;;3.95;2.38;;;1.40;99.90;;;;;;5076382;28;20057;-91
2022/01/05 10:17:41;;;;;;;2.15;1.90;;;1.40;99.90;;;;;;5089208;28;20055;-90
2022/01/05 10:20:10;;;;;;;9.60;2.67;;;1.50;99.90;;;;;;5067202;28;20107;-91
2022/01/05 10:22:41;;;;;;;9.20;3.50;;;1.60;99.90;;;;;;5085397;28;20110;-91
2022/01/05 10:25:17;;;;;;;6.78;1.83;;;1.70;99.90;;;;;;5068655;28;20053;-88
2022/01/05 10:27:56;;;;;;;4.05;2.58;;;1.80;99.90;;;;;;5067597;28;20044;-90
2022/01/05 10:30:34;;;;;;;6.20;2.08;;;2.00;99.90;;;;;;5067206;28;20076;-90
2022/01/05 10:33:02;;;;;;;5.93;2.00;;;2.10;99.90;;;;;;5085566;28;20072;-91
2022/01/05 10:35:29;;;;;;;10.77;2.60;;;2.20;99.90;;;;;;5068303;28;20131;-90
2022/01/05 10:38:04;;;;;;;5.28;2.00;;;2.40;99.90;;;;;;5071540;28;20048;-89
2022/01/05 10:40:38;;;;;;;4.28;2.08;;;2.50;99.90;;;;;;5082999;28;20043;-90
2022/01/05 10:43:11;;;;;;;7.82;2.15;;;2.60;99.90;;;;;;5076280;28;20044;-90
2022/01/05 10:45:44;;;;;;;2.53;1.63;;;2.70;99.90;;;;;;5088085;28;20079;-90
2022/01/05 10:48:15;;;;;;;6.30;1.90;;;2.80;99.90;;;;;;5070965;28;20045;-91
2022/01/05 10:50:43;;;;;;;4.28;1.63;;;3.20;99.90;;;;;;5070371;28;20044;-91
2022/01/05 10:53:21;;;;;;;2.85;1.70;;;3.30;99.90;;;;;;5070930;28;20052;-91
2022/01/05 10:55:48;;;;;;;1.73;1.15;;;3.40;99.90;;;;;;5087528;28;20044;-91
2022/01/05 10:58:18;;;;;;;3.10;1.35;;;3.40;99.90;;;;;;5070974;28;20052;-91
2022/01/05 11:00:52;;;;;;;4.15;1.02;;;3.40;99.90;;;;;;5071061;28;20048;-91
2022/01/05 11:03:35;;;;;;;11.02;1.85;;;3.30;99.90;;;;;;5070344;28;20063;-91
2022/01/05 11:06:11;;;;;;;26.52;4.07;;;3.30;99.90;;;;;;5070690;28;20056;-91
2022/01/05 11:08:56;;;;;;;5.75;1.50;;;3.30;99.90;;;;;;5071690;28;20079;-91
2022/01/05 11:11:38;;;;;;;25.17;2.65;;;3.30;99.90;;;;;;5070928;28;20052;-94
2022/01/05 11:14:06;;;;;;;6.20;1.52;;;3.10;99.90;;;;;;5068433;28;20048;-92
2022/01/05 11:16:34;;;;;;;5.15;1.65;;;2.90;99.90;;;;;;5087507;28;20056;-91
2022/01/05 11:19:15;;;;;;;4.88;1.70;;;2.60;99.90;;;;;;5054152;28;20048;-92
2022/01/05 11:22:02;;;;;;;16.92;4.00;;;2.60;99.90;;;;;;5069645;28;20060;-92
2022/01/05 11:24:51;;;;;;;15.10;2.30;;;2.60;99.90;;;;;;5071696;28;20098;-91
2022/01/05 11:27:29;;;;;;;12.75;2.13;;;2.60;99.90;;;;;;5053585;28;20075;-91
2022/01/05 11:29:58;;;;;;;4.55;1.80;;;2.70;99.90;;;;;;5070676;28;20044;-92
2022/01/05 11:32:31;;;;;;;4.07;1.20;;;2.70;99.90;;;;;;5071309;28;20067;-92
2022/01/05 11:35:07;;;;;;;4.15;1.45;;;2.70;99.90;;;;;;5071594;28;20052;-91
2022/01/05 11:37:35;;;;;;;3.83;1.17;;;2.60;99.90;;;;;;5070439;28;20067;-91
2022/01/05 11:40:05;;;;;;;6.22;1.88;;;2.60;99.90;;;;;;5070210;28;20137;-91
2022/01/05 11:42:39;;;;;;;6.05;1.33;;;2.60;99.90;;;;;;5088664;28;20044;-92
2022/01/05 11:45:08;;;;;;;5.97;1.77;;;2.70;99.90;;;;;;5071228;28;20056;-93
2022/01/05 11:47:37;;;;;;;5.47;1.20;;;2.70;99.90;;;;;;5054170;28;20064;-91
2022/01/05 11:50:25;;;;;;;8.43;1.40;;;2.70;99.90;;;;;;5071312;28;20103;-91
2022/01/05 11:53:08;;;;;;;6.82;1.40;;;2.70;99.90;;;;;;5087909;28;20044;-92
2022/01/05 11:55:58;;;;;;;6.65;1.42;;;2.80;99.90;;;;;;5080978;28;20053;-91
2022/01/05 11:58:30;;;;;;;10.20;1.50;;;2.70;99.90;;;;;;5076188;28;20050;-92
2022/01/05 12:01:12;;;;;;;6.40;1.70;;;2.80;99.90;;;;;;5071592;28;20079;-92
2022/01/05 12:03:59;;;;;;;3.97;1.10;;;2.80;99.90;;;;;;5085766;28;20049;-90
2022/01/05 12:07:00;;;;;;;4.85;1.65;;;2.80;99.90;;;;;;5075406;28;20060;-91
2022/01/05 12:09:30;;;;;;;8.30;1.70;;;2.70;99.90;;;;;;5081932;28;20052;-92
2022/01/05 12:12:20;;;;;;;10.30;1.88;;;2.60;99.90;;;;;;5059140;28;20075;-91
2022/01/05 12:14:47;;;;;;;11.65;1.55;;;2.60;99.90;;;;;;5057545;28;20533;-92
2022/01/05 12:17:18;;;;;;;4.88;1.70;;;2.60;99.90;;;;;;5086801;28;20049;-91
2022/01/05 12:19:51;;;;;;;9.88;2.00;;;2.60;99.90;;;;;;5053411;28;20048;-91
2022/01/05 12:22:21;;;;;;;5.38;1.65;;;2.70;99.90;;;;;;5069717;28;20473;-92
2022/01/05 12:25:04;;;;;;;4.65;1.50;;;2.70;99.90;;;;;;5070097;28;20048;-91
2022/01/05 12:27:53;;;;;;;8.30;1.63;;;2.80;99.90;;;;;;5087029;28;20086;-91
2022/01/05 12:30:20;;;;;;;7.28;1.30;;;3.00;99.90;;;;;;5069039;28;20119;-92
2022/01/05 12:33:14;;;;;;;10.52;1.73;;;3.10;99.90;;;;;;5068529;28;20131;-92
2022/01/05 12:35:49;;;;;;;6.80;2.28;;;3.10;99.90;;;;;;5081504;28;20048;-90
2022/01/05 12:38:46;;;;;;;7.30;1.65;;;3.00;99.90;;;;;;5051721;28;20476;-93
2022/01/05 12:41:29;;;;;;;7.82;1.55;;;3.10;99.90;;;;;;5085395;28;20048;-91
2022/01/05 12:44:16;;;;;;;8.85;1.75;;;3.10;99.90;;;;;;5069940;28;20052;-91
2022/01/05 12:46:52;;;;;;;10.95;1.92;;;3.10;99.90;;;;;;5067890;28;20044;-92
2022/01/05 12:49:27;;;;;;;4.90;1.45;;;3.00;99.90;;;;;;5067750;28;20240;-90
2022/01/05 12:52:10;;;;;;;7.18;2.25;;;2.90;99.90;;;;;;5068362;28;20052;-92
2022/01/05 12:54:52;;;;;;;9.75;1.63;;;2.70;99.90;;;;;;5067743;28;20055;-92
2022/01/05 12:57:22;;;;;;;5.85;1.35;;;2.60;99.90;;;;;;5067816;28;20105;-92
2022/01/05 12:59:52;;;;;;;7.90;1.65;;;2.50;99.90;;;;;;5066811;28;20420;-93
2022/01/05 13:02:25;;;;;;;5.82;1.42;;;2.50;99.90;;;;;;5068729;28;20078;-89
2022/01/05 13:05:06;;;;;;;7.65;2.20;;;2.40;99.90;;;;;;5068426;28;20040;-93
2022/01/05 13:07:39;;;;;;;4.57;1.40;;;2.40;99.90;;;;;;5068369;28;20408;-92
2022/01/05 13:10:15;;;;;;;3.70;1.20;;;2.40;99.90;;;;;;5073403;28;20055;-91
2022/01/05 13:12:43;;;;;;;7.75;1.60;;;2.50;99.90;;;;;;5080939;28;20033;-91